Mali Ston, Croatia
Current Conditions -  °F | °C
As of 1:00 AM on Friday 28 Nov 2014 (Local Time) from LDDU Reporting Station
Broken Clouds Broken Clouds  
Wind Chill: 57°   Ceiling: 4500
Heat Index: 57°   Visibility: 6mi
Dew Point: 52°   Wind: 7mph
Humidity: 82%   Direction: 90°E
Pressure: 30.03"   Gusts: NA
Location:  42.84°N, 17.69°E
Report Text: LDDU 272300Z 09006KT 9999 SCT023 BKN045 14/11 Q1017
Loading
Personal Weather Stations






























Interactive Weather Map New forecast layout! Learn more

10-Day Weather Forecast

Advertisements
Track Severe Weather on mobile